Island Venture — WDG3765 — position and weather

sailwx.info

Track history (hours):
 
Tides and Currents Weather Stations Pressure Air Temp Water Temp Dewpoint Dewpoint Depression Visibility Wind Speed Wind Dir Waves Ship Positions

Island Venture

Owner: Island Tug & Barge Co, Seattle, WA. More information available from US FCC via Universal Licensing System and Coast Guard Vessel Documentation Center.

Last reported at 2015-Mar-27 16:28 UTC. Time now 2015-Mar-29 09:28 UTC.
Position N 47°34' W 122°21'.

Type: Tug. MMSI: 367529420.

Date/timePositionNaut miles runAvg speedWind from/ knotsBaromVisibWave heightAir tempDewpointWater temp
2015-Mar-27 16:28N 47°34' W 122°21'0 0.0
2015-Mar-27 16:25N 47°34' W 122°21'0 0.1
2015-Mar-27 15:33N 47°34' W 122°21'0 0.1
2015-Mar-27 15:30N 47°34' W 122°21'2 1.7
2015-Mar-27 14:33N 47°33' W 122°20'0 2.9
2015-Mar-27 14:30N 47°33' W 122°20'4 4.0
2015-Mar-27 13:34N 47°36' W 122°24'0 4.0
2015-Mar-27 13:30N 47°35' W 122°25'7 7.4
2015-Mar-27 12:34N 47°29' W 122°30'0 7.4
2015-Mar-27 12:30N 47°29' W 122°30'7 8.0
2015-Mar-27 11:34N 47°22' W 122°32'9 8.7
2015-Mar-27 10:33N 47°13' W 122°35'8 7.7
2015-Mar-27 09:33N 47°10' W 122°46'7 0.4
2015-Mar-26 17:20N 47°12' W 122°56'1 1.8
2015-Mar-26 16:32N 47°11' W 122°55'1 1.2
2015-Mar-26 15:25N 47°09' W 122°54'4 4.1
2015-Mar-26 14:33N 47°11' W 122°50'7 5.8
2015-Mar-26 13:22N 47°08' W 122°41'4 4.9
2015-Mar-26 12:27N 47°12' W 122°37'5 5.4
2015-Mar-26 11:34N 47°16' W 122°34'5 5.0
2015-Mar-26 10:34N 47°21' W 122°32'5 4.8
2015-Mar-26 09:34N 47°18' W 122°26'1 0.7
2015-Mar-26 08:33N 47°18' W 122°25'3 2.6
2015-Mar-26 07:29N 47°16' W 122°22'5 5.6
2015-Mar-26 06:34N 47°19' W 122°29'3 2.8
2015-Mar-26 05:33N 47°17' W 122°32'4 4.5
2015-Mar-26 04:34N 47°13' W 122°35'6 5.4
2015-Mar-26 03:30N 47°08' W 122°39'1 0.2
2015-Mar-26 00:23N 47°09' W 122°38'0 0.0
2015-Mar-25 23:11N 47°09' W 122°38'4 4.0
2015-Mar-25 22:14N 47°12' W 122°36'4 6.6
2015-Mar-25 21:33N 47°16' W 122°33'4 3.8
2015-Mar-25 20:33N 47°18' W 122°28'5 5.1
2015-Mar-25 19:33N 47°16' W 122°22'3 3.2
2015-Mar-25 18:33N 47°18' W 122°26'6 6.0
2015-Mar-25 17:33N 47°22' W 122°32'7 7.0
2015-Mar-25 16:33N 47°29' W 122°30'4 7.0
2015-Mar-25 16:03N 47°32' W 122°28'4 7.3
2015-Mar-25 15:34N 47°35' W 122°25'1 6.6
2015-Mar-25 15:29N 47°35' W 122°25'3 3.3
2015-Mar-25 14:33N 47°34' W 122°21'1 0.7
2015-Mar-25 13:42N 47°34' W 122°21'1 4.5
2015-Mar-25 13:34N 47°35' W 122°22'0 4.6
2015-Mar-25 13:31N 47°35' W 122°22'3 3.3
2015-Mar-25 12:34N 47°33' W 122°26'0 4.4
2015-Mar-25 12:32N 47°33' W 122°26'5 4.8
2015-Mar-25 11:33N 47°30' W 122°30'1 6.1
2015-Mar-25 11:21N 47°28' W 122°31'5 6.3
2015-Mar-25 10:33N 47°23' W 122°32'7 7.0
2015-Mar-25 09:34N 47°16' W 122°33'8 7.9
2015-Mar-25 08:33N 47°10' W 122°39'6 5.2
2015-Mar-25 07:22N 47°11' W 122°48'5 0.3
2015-Mar-24 14:33N 47°12' W 122°56'4 2.9
2015-Mar-24 13:07N 47°11' W 122°50'2 3.5
2015-Mar-24 12:33N 47°10' W 122°47'4 4.2
2015-Mar-24 11:29N 47°07' W 122°42'6 5.7
2015-Mar-24 10:27N 47°12' W 122°37'6 6.8
2015-Mar-24 09:33N 47°17' W 122°32'6 5.8
2015-Mar-24 08:34N 47°23' W 122°32'6 6.5
2015-Mar-24 07:41N 47°29' W 122°31'1 6.3
2015-Mar-24 07:34N 47°29' W 122°30'2 6.2
2015-Mar-24 07:16N 47°31' W 122°29'5 6.9
2015-Mar-24 06:34N 47°35' W 122°25'0 7.2
2015-Mar-24 06:31N 47°35' W 122°25'2 5.1
2015-Mar-24 06:06N 47°35' W 122°22'2 4.2
2015-Mar-24 05:33N 47°33' W 122°20'0 0.0
2015-Mar-24 04:16N 47°33' W 122°20'0 0.0
2015-Mar-24 04:07N 47°33' W 122°20'0 0.0
2015-Mar-24 03:05N 47°33' W 122°20'0 0.0
2015-Mar-24 01:55N 47°33' W 122°20'2 4.8
2015-Mar-24 01:33N 47°34' W 122°21'0 0.0
2015-Mar-24 01:31N 47°34' W 122°21'1 1.0
2015-Mar-24 00:33N 47°35' W 122°22'0 0.0
2015-Mar-24 00:31N 47°35' W 122°22'3 3.2
2015-Mar-23 23:33N 47°34' W 122°26'0 6.1
2015-Mar-23 23:31N 47°34' W 122°27'7 7.5
2015-Mar-23 22:33N 47°27' W 122°31'0 7.0
2015-Mar-23 22:30N 47°27' W 122°31'8 8.3
2015-Mar-23 21:34N 47°19' W 122°33'8 8.2
2015-Mar-23 20:32N 47°11' W 122°37'3 3.2
2015-Mar-23 19:33N 47°08' W 122°39'0 0.0
2015-Mar-23 18:30N 47°08' W 122°39'0 0.0
2015-Mar-23 17:31N 47°08' W 122°39'0 0.0
2015-Mar-23 16:22N 47°08' W 122°39'0 0.0
2015-Mar-23 15:34N 47°08' W 122°39'0 0.0
2015-Mar-23 14:30N 47°08' W 122°39'1 0.8
2015-Mar-23 13:30N 47°09' W 122°39'5 5.1
2015-Mar-23 12:33N 47°13' W 122°35'9 9.2
2015-Mar-23 11:34N 47°22' W 122°32'8 8.4
2015-Mar-23 10:34N 47°30' W 122°30'4 8.7
2015-Mar-23 10:03N 47°34' W 122°27'3 6.2
2015-Mar-23 09:33N 47°36' W 122°23'0 5.2
2015-Mar-23 09:29N 47°35' W 122°22'1 1.1
2015-Mar-23 08:33N 47°34' W 122°21'0 0.0
2015-Mar-23 08:18N 47°34' W 122°21'0 0.0
2015-Mar-23 07:33N 47°34' W 122°21'0 0.0
2015-Mar-23 07:33N 47°34' W 122°21'0 0.0
2015-Mar-21 10:34N 47°34' W 122°21'0 0.4
2015-Mar-21 10:34N 47°34' W 122°21'0 0.0
2015-Mar-21 10:29N 47°34' W 122°21'2 1.9
2015-Mar-21 09:34N 47°33' W 122°20'1 1.7
2015-Mar-21 08:58N 47°34' W 122°21'2 4.1
2015-Mar-21 08:33N 47°35' W 122°22'0 4.5
2015-Mar-21 08:33N 47°35' W 122°22'2 1.6
2015-Mar-21 07:32N 47°34' W 122°21'0 0.0
2015-Mar-21 07:32N 47°34' W 122°21'2 2.2
2015-Mar-21 06:33N 47°36' W 122°22'0 1.8
2015-Mar-21 06:33N 47°36' W 122°22'2 6.9
2015-Mar-21 06:13N 47°35' W 122°25'6 8.9
2015-Mar-21 05:33N 47°30' W 122°30'10 9.7
2015-Mar-21 04:33N 47°21' W 122°33'10 9.9
2015-Mar-21 03:33N 47°11' W 122°38'7 7.5
2015-Mar-21 02:33N 47°11' W 122°49'5 0.3
2015-Mar-20 13:06N 47°12' W 122°56'3 3.8
2015-Mar-20 12:23N 47°10' W 122°54'0 0.4
2015-Mar-20 11:19N 47°09' W 122°54'4 3.6
2015-Mar-20 10:17N 47°12' W 122°50'5 5.9
2015-Mar-20 09:22N 47°08' W 122°44'6 6.2
2015-Mar-20 08:27N 47°11' W 122°37'8 9.2
2015-Mar-20 07:33N 47°19' W 122°33'7 7.4
2015-Mar-20 06:33N 47°26' W 122°31'7 7.5
2015-Mar-20 05:33N 47°33' W 122°27'1 7.5
2015-Mar-20 05:23N 47°35' W 122°26'3 3.4
2015-Mar-20 04:33N 47°35' W 122°22'0 0.0
2015-Mar-20 04:33N 47°35' W 122°22'0 0.0
2015-Mar-20 03:33N 47°35' W 122°22'0 0.5
2015-Mar-20 02:40N 47°35' W 122°22'1 6.0
2015-Mar-20 02:33N 47°34' W 122°21'0 0.0
2015-Mar-20 02:30N 47°34' W 122°21'1 0.6
2015-Mar-20 01:29N 47°34' W 122°21'1 3.5
2015-Mar-20 01:08N 47°35' W 122°22'3 5.2
2015-Mar-20 00:33N 47°37' W 122°25'0 0.0
2015-Mar-20 00:33N 47°37' W 122°25'3 3.0
2015-Mar-19 23:33N 47°39' W 122°28'0 6.1
2015-Mar-19 23:32N 47°39' W 122°28'6 5.9
2015-Mar-19 22:33N 47°45' W 122°27'0 4.8
2015-Mar-19 22:33N 47°45' W 122°27'6 5.9
2015-Mar-19 21:34N 47°51' W 122°28'0 6.6
2015-Mar-19 21:33N 47°51' W 122°29'6 6.3
2015-Mar-19 20:33N 47°57' W 122°33'6 6.4
2015-Mar-19 19:33N 48°02' W 122°39'6 6.0
2015-Mar-19 18:32N 48°07' W 122°42'5 5.5
2015-Mar-19 17:33N 48°11' W 122°48'11 5.5
2015-Mar-19 15:33N 48°22' W 122°46'7 7.2
2015-Mar-19 14:33N 48°29' W 122°44'7 7.1
2015-Mar-19 13:33N 48°36' W 122°45'6 5.6
2015-Mar-19 12:33N 48°42' W 122°44'5 4.5
2015-Mar-19 11:33N 48°45' W 122°49'6 5.8
2015-Mar-19 10:33N 48°48' W 122°56'5 5.2
2015-Mar-19 09:34N 48°51' W 123°03'6 5.6
2015-Mar-19 08:33N 48°54' W 123°10'5 5.4
2015-Mar-19 07:33N 48°58' W 123°16'6 6.2
2015-Mar-19 06:33N 49°02' W 123°22'6 6.3
2015-Mar-19 05:33N 49°07' W 123°29'7 6.7
2015-Mar-19 04:33N 49°11' W 123°37'7 6.6
2015-Mar-19 03:33N 49°15' W 123°45'7 6.5
2015-Mar-19 02:33N 49°20' W 123°52'8 6.4
2015-Mar-19 01:17N 49°25' W 124°02'5 6.2
2015-Mar-19 00:27N 49°28' W 124°08'5 5.7
2015-Mar-18 23:29N 49°32' W 124°15'7 5.8
2015-Mar-18 22:17N 49°35' W 124°24'4 5.4
2015-Mar-18 21:31N 49°38' W 124°29'5 3.8
2015-Mar-18 20:07N 49°42' W 124°33'0 0.3
2015-Mar-18 19:32N 49°42' W 124°33'1 0.2
2015-Mar-18 13:18N 49°41' W 124°34'3 2.9
2015-Mar-18 12:26N 49°39' W 124°31'4 4.7
2015-Mar-18 11:33N 49°36' W 124°27'7 6.6
2015-Mar-18 10:33N 49°33' W 124°18'8 7.6
2015-Mar-18 09:32N 49°29' W 124°08'8 8.1
2015-Mar-18 08:33N 49°23' W 123°59'8 8.3
2015-Mar-18 07:32N 49°18' W 123°49'8 8.2
2015-Mar-18 06:33N 49°13' W 123°39'8 7.9
2015-Mar-18 05:33N 49°09' W 123°29'8 8.1
2015-Mar-18 04:33N 49°03' W 123°20'7 7.5
2015-Mar-18 03:34N 48°58' W 123°11'7 6.5
2015-Mar-18 02:33N 48°54' W 123°04'7 6.8
2015-Mar-18 01:33N 48°50' W 122°56'7 7.3
2015-Mar-18 00:33N 48°46' W 122°47'7 6.9
2015-Mar-17 23:33N 48°39' W 122°43'7 7.4
2015-Mar-17 22:33N 48°32' W 122°44'8 8.3
2015-Mar-17 21:33N 48°24' W 122°44'11 7.7
2015-Mar-17 20:06N 48°13' W 122°48'4 6.3
2015-Mar-17 19:23N 48°09' W 122°43'6 7.0
2015-Mar-17 18:32N 48°04' W 122°38'8 7.8
2015-Mar-17 17:33N 47°57' W 122°33'4 7.9
2015-Mar-17 16:59N 47°54' W 122°29'4 8.4
2015-Mar-17 16:34N 47°51' W 122°27'  
Track history (hours):
 
Tides and Currents Weather Stations Pressure Air Temp Water Temp Dewpoint Dewpoint Depression Visibility Wind Speed Wind Dir Waves Ship Positions

Island Venture

Owner: Island Tug & Barge Co, Seattle, WA. More information available from US FCC via Universal Licensing System and Coast Guard Vessel Documentation Center.

Last reported at 2015-Mar-27 16:28 UTC. Time now 2015-Mar-29 09:28 UTC.
Position N 47°34' W 122°21'.

Type: Tug. MMSI: 367529420.

Date/timePositionNaut miles runAvg speedWind from/ knotsBaromVisibWave heightAir tempDewpointWater temp
2015-Mar-27 16:28N 47°34' W 122°21'0 0.0
2015-Mar-27 16:25N 47°34' W 122°21'0 0.1
2015-Mar-27 15:33N 47°34' W 122°21'0 0.1
2015-Mar-27 15:30N 47°34' W 122°21'2 1.7
2015-Mar-27 14:33N 47°33' W 122°20'0 2.9
2015-Mar-27 14:30N 47°33' W 122°20'4 4.0
2015-Mar-27 13:34N 47°36' W 122°24'0 4.0
2015-Mar-27 13:30N 47°35' W 122°25'7 7.4
2015-Mar-27 12:34N 47°29' W 122°30'0 7.4
2015-Mar-27 12:30N 47°29' W 122°30'7 8.0
2015-Mar-27 11:34N 47°22' W 122°32'9 8.7
2015-Mar-27 10:33N 47°13' W 122°35'8 7.7
2015-Mar-27 09:33N 47°10' W 122°46'7 0.4
2015-Mar-26 17:20N 47°12' W 122°56'1 1.8
2015-Mar-26 16:32N 47°11' W 122°55'1 1.2
2015-Mar-26 15:25N 47°09' W 122°54'4 4.1
2015-Mar-26 14:33N 47°11' W 122°50'7 5.8
2015-Mar-26 13:22N 47°08' W 122°41'4 4.9
2015-Mar-26 12:27N 47°12' W 122°37'5 5.4
2015-Mar-26 11:34N 47°16' W 122°34'5 5.0
2015-Mar-26 10:34N 47°21' W 122°32'5 4.8
2015-Mar-26 09:34N 47°18' W 122°26'1 0.7
2015-Mar-26 08:33N 47°18' W 122°25'3 2.6
2015-Mar-26 07:29N 47°16' W 122°22'5 5.6
2015-Mar-26 06:34N 47°19' W 122°29'3 2.8
2015-Mar-26 05:33N 47°17' W 122°32'4 4.5
2015-Mar-26 04:34N 47°13' W 122°35'6 5.4
2015-Mar-26 03:30N 47°08' W 122°39'1 0.2
2015-Mar-26 00:23N 47°09' W 122°38'0 0.0
2015-Mar-25 23:11N 47°09' W 122°38'4 4.0
2015-Mar-25 22:14N 47°12' W 122°36'4 6.6
2015-Mar-25 21:33N 47°16' W 122°33'4 3.8
2015-Mar-25 20:33N 47°18' W 122°28'5 5.1
2015-Mar-25 19:33N 47°16' W 122°22'3 3.2
2015-Mar-25 18:33N 47°18' W 122°26'6 6.0
2015-Mar-25 17:33N 47°22' W 122°32'7 7.0
2015-Mar-25 16:33N 47°29' W 122°30'4 7.0
2015-Mar-25 16:03N 47°32' W 122°28'4 7.3
2015-Mar-25 15:34N 47°35' W 122°25'1 6.6
2015-Mar-25 15:29N 47°35' W 122°25'3 3.3
2015-Mar-25 14:33N 47°34' W 122°21'1 0.7
2015-Mar-25 13:42N 47°34' W 122°21'1 4.5
2015-Mar-25 13:34N 47°35' W 122°22'0 4.6
2015-Mar-25 13:31N 47°35' W 122°22'3 3.3
2015-Mar-25 12:34N 47°33' W 122°26'0 4.4
2015-Mar-25 12:32N 47°33' W 122°26'5 4.8
2015-Mar-25 11:33N 47°30' W 122°30'1 6.1
2015-Mar-25 11:21N 47°28' W 122°31'5 6.3
2015-Mar-25 10:33N 47°23' W 122°32'7 7.0
2015-Mar-25 09:34N 47°16' W 122°33'8 7.9
2015-Mar-25 08:33N 47°10' W 122°39'6 5.2
2015-Mar-25 07:22N 47°11' W 122°48'5 0.3
2015-Mar-24 14:33N 47°12' W 122°56'4 2.9
2015-Mar-24 13:07N 47°11' W 122°50'2 3.5
2015-Mar-24 12:33N 47°10' W 122°47'4 4.2
2015-Mar-24 11:29N 47°07' W 122°42'6 5.7
2015-Mar-24 10:27N 47°12' W 122°37'6 6.8
2015-Mar-24 09:33N 47°17' W 122°32'6 5.8
2015-Mar-24 08:34N 47°23' W 122°32'6 6.5
2015-Mar-24 07:41N 47°29' W 122°31'1 6.3
2015-Mar-24 07:34N 47°29' W 122°30'2 6.2
2015-Mar-24 07:16N 47°31' W 122°29'5 6.9
2015-Mar-24 06:34N 47°35' W 122°25'0 7.2
2015-Mar-24 06:31N 47°35' W 122°25'2 5.1
2015-Mar-24 06:06N 47°35' W 122°22'2 4.2
2015-Mar-24 05:33N 47°33' W 122°20'0 0.0
2015-Mar-24 04:16N 47°33' W 122°20'0 0.0
2015-Mar-24 04:07N 47°33' W 122°20'0 0.0
2015-Mar-24 03:05N 47°33' W 122°20'0 0.0
2015-Mar-24 01:55N 47°33' W 122°20'2 4.8
2015-Mar-24 01:33N 47°34' W 122°21'0 0.0
2015-Mar-24 01:31N 47°34' W 122°21'1 1.0
2015-Mar-24 00:33N 47°35' W 122°22'0 0.0
2015-Mar-24 00:31N 47°35' W 122°22'3 3.2
2015-Mar-23 23:33N 47°34' W 122°26'0 6.1
2015-Mar-23 23:31N 47°34' W 122°27'7 7.5
2015-Mar-23 22:33N 47°27' W 122°31'0 7.0
2015-Mar-23 22:30N 47°27' W 122°31'8 8.3
2015-Mar-23 21:34N 47°19' W 122°33'8 8.2
2015-Mar-23 20:32N 47°11' W 122°37'3 3.2
2015-Mar-23 19:33N 47°08' W 122°39'0 0.0
2015-Mar-23 18:30N 47°08' W 122°39'0 0.0
2015-Mar-23 17:31N 47°08' W 122°39'0 0.0
2015-Mar-23 16:22N 47°08' W 122°39'0 0.0
2015-Mar-23 15:34N 47°08' W 122°39'0 0.0
2015-Mar-23 14:30N 47°08' W 122°39'1 0.8
2015-Mar-23 13:30N 47°09' W 122°39'5 5.1
2015-Mar-23 12:33N 47°13' W 122°35'9 9.2
2015-Mar-23 11:34N 47°22' W 122°32'8 8.4
2015-Mar-23 10:34N 47°30' W 122°30'4 8.7
2015-Mar-23 10:03N 47°34' W 122°27'3 6.2
2015-Mar-23 09:33N 47°36' W 122°23'0 5.2
2015-Mar-23 09:29N 47°35' W 122°22'1 1.1
2015-Mar-23 08:33N 47°34' W 122°21'0 0.0
2015-Mar-23 08:18N 47°34' W 122°21'0 0.0
2015-Mar-23 07:33N 47°34' W 122°21'0 0.0
2015-Mar-23 07:33N 47°34' W 122°21'0 0.0
2015-Mar-21 10:34N 47°34' W 122°21'0 0.4
2015-Mar-21 10:34N 47°34' W 122°21'0 0.0
2015-Mar-21 10:29N 47°34' W 122°21'2 1.9
2015-Mar-21 09:34N 47°33' W 122°20'1 1.7
2015-Mar-21 08:58N 47°34' W 122°21'2 4.1
2015-Mar-21 08:33N 47°35' W 122°22'0 4.5
2015-Mar-21 08:33N 47°35' W 122°22'2 1.6
2015-Mar-21 07:32N 47°34' W 122°21'0 0.0
2015-Mar-21 07:32N 47°34' W 122°21'2 2.2
2015-Mar-21 06:33N 47°36' W 122°22'0 1.8
2015-Mar-21 06:33N 47°36' W 122°22'2 6.9
2015-Mar-21 06:13N 47°35' W 122°25'6 8.9
2015-Mar-21 05:33N 47°30' W 122°30'10 9.7
2015-Mar-21 04:33N 47°21' W 122°33'10 9.9
2015-Mar-21 03:33N 47°11' W 122°38'7 7.5
2015-Mar-21 02:33N 47°11' W 122°49'5 0.3
2015-Mar-20 13:06N 47°12' W 122°56'3 3.8
2015-Mar-20 12:23N 47°10' W 122°54'0 0.4
2015-Mar-20 11:19N 47°09' W 122°54'4 3.6
2015-Mar-20 10:17N 47°12' W 122°50'5 5.9
2015-Mar-20 09:22N 47°08' W 122°44'6 6.2
2015-Mar-20 08:27N 47°11' W 122°37'8 9.2
2015-Mar-20 07:33N 47°19' W 122°33'7 7.4
2015-Mar-20 06:33N 47°26' W 122°31'7 7.5
2015-Mar-20 05:33N 47°33' W 122°27'1 7.5
2015-Mar-20 05:23N 47°35' W 122°26'3 3.4
2015-Mar-20 04:33N 47°35' W 122°22'0 0.0
2015-Mar-20 04:33N 47°35' W 122°22'0 0.0
2015-Mar-20 03:33N 47°35' W 122°22'0 0.5
2015-Mar-20 02:40N 47°35' W 122°22'1 6.0
2015-Mar-20 02:33N 47°34' W 122°21'0 0.0
2015-Mar-20 02:30N 47°34' W 122°21'1 0.6
2015-Mar-20 01:29N 47°34' W 122°21'1 3.5
2015-Mar-20 01:08N 47°35' W 122°22'3 5.2
2015-Mar-20 00:33N 47°37' W 122°25'0 0.0
2015-Mar-20 00:33N 47°37' W 122°25'3 3.0
2015-Mar-19 23:33N 47°39' W 122°28'0 6.1
2015-Mar-19 23:32N 47°39' W 122°28'6 5.9
2015-Mar-19 22:33N 47°45' W 122°27'0 4.8
2015-Mar-19 22:33N 47°45' W 122°27'6 5.9
2015-Mar-19 21:34N 47°51' W 122°28'0 6.6
2015-Mar-19 21:33N 47°51' W 122°29'6 6.3
2015-Mar-19 20:33N 47°57' W 122°33'6 6.4
2015-Mar-19 19:33N 48°02' W 122°39'6 6.0
2015-Mar-19 18:32N 48°07' W 122°42'5 5.5
2015-Mar-19 17:33N 48°11' W 122°48'11 5.5
2015-Mar-19 15:33N 48°22' W 122°46'7 7.2
2015-Mar-19 14:33N 48°29' W 122°44'7 7.1
2015-Mar-19 13:33N 48°36' W 122°45'6 5.6
2015-Mar-19 12:33N 48°42' W 122°44'5 4.5
2015-Mar-19 11:33N 48°45' W 122°49'6 5.8
2015-Mar-19 10:33N 48°48' W 122°56'5 5.2
2015-Mar-19 09:34N 48°51' W 123°03'6 5.6
2015-Mar-19 08:33N 48°54' W 123°10'5 5.4
2015-Mar-19 07:33N 48°58' W 123°16'6 6.2
2015-Mar-19 06:33N 49°02' W 123°22'6 6.3
2015-Mar-19 05:33N 49°07' W 123°29'7 6.7
2015-Mar-19 04:33N 49°11' W 123°37'7 6.6
2015-Mar-19 03:33N 49°15' W 123°45'7 6.5
2015-Mar-19 02:33N 49°20' W 123°52'8 6.4
2015-Mar-19 01:17N 49°25' W 124°02'5 6.2
2015-Mar-19 00:27N 49°28' W 124°08'5 5.7
2015-Mar-18 23:29N 49°32' W 124°15'7 5.8
2015-Mar-18 22:17N 49°35' W 124°24'4 5.4
2015-Mar-18 21:31N 49°38' W 124°29'5 3.8
2015-Mar-18 20:07N 49°42' W 124°33'0 0.3
2015-Mar-18 19:32N 49°42' W 124°33'1 0.2
2015-Mar-18 13:18N 49°41' W 124°34'3 2.9
2015-Mar-18 12:26N 49°39' W 124°31'4 4.7
2015-Mar-18 11:33N 49°36' W 124°27'7 6.6
2015-Mar-18 10:33N 49°33' W 124°18'8 7.6
2015-Mar-18 09:32N 49°29' W 124°08'8 8.1
2015-Mar-18 08:33N 49°23' W 123°59'8 8.3
2015-Mar-18 07:32N 49°18' W 123°49'8 8.2
2015-Mar-18 06:33N 49°13' W 123°39'8 7.9
2015-Mar-18 05:33N 49°09' W 123°29'8 8.1
2015-Mar-18 04:33N 49°03' W 123°20'7 7.5
2015-Mar-18 03:34N 48°58' W 123°11'7 6.5
2015-Mar-18 02:33N 48°54' W 123°04'7 6.8
2015-Mar-18 01:33N 48°50' W 122°56'7 7.3
2015-Mar-18 00:33N 48°46' W 122°47'7 6.9
2015-Mar-17 23:33N 48°39' W 122°43'7 7.4
2015-Mar-17 22:33N 48°32' W 122°44'8 8.3
2015-Mar-17 21:33N 48°24' W 122°44'11 7.7
2015-Mar-17 20:06N 48°13' W 122°48'4 6.3
2015-Mar-17 19:23N 48°09' W 122°43'6 7.0
2015-Mar-17 18:32N 48°04' W 122°38'8 7.8
2015-Mar-17 17:33N 47°57' W 122°33'4 7.9
2015-Mar-17 16:59N 47°54' W 122°29'4 8.4
2015-Mar-17 16:34N 47°51' W 122°27'  

Dump ship's entire track history